sensor_id;sensor_type;location;lat;lon;timestamp;pressure;altitude;pressure_sealevel;temperature;humidity
73817;BME280;62146;53.232;-1.304;2023-04-25T00:01:54;100633.00;;;3.19;100.00
73817;BME280;62146;53.232;-1.304;2023-04-25T00:04:20;100625.16;;;3.19;100.00
73817;BME280;62146;53.232;-1.304;2023-04-25T00:06:48;100635.38;;;3.14;100.00
73817;BME280;62146;53.232;-1.304;2023-04-25T00:09:15;100633.50;;;3.08;100.00
73817;BME280;62146;53.232;-1.304;2023-04-25T00:11:41;100623.22;;;3.06;100.00
73817;BME280;62146;53.232;-1.304;2023-04-25T00:14:08;100628.66;;;3.05;100.00
73817;BME280;62146;53.232;-1.304;2023-04-25T00:16:34;100623.78;;;3.02;100.00
73817;BME280;62146;53.232;-1.304;2023-04-25T00:19:02;100614.69;;;2.98;100.00
73817;BME280;62146;53.232;-1.304;2023-04-25T00:21:30;100614.97;;;2.89;100.00
73817;BME280;62146;53.232;-1.304;2023-04-25T00:23:58;100618.38;;;2.89;100.00
73817;BME280;62146;53.232;-1.304;2023-04-25T00:26:24;100623.38;;;2.84;100.00
73817;BME280;62146;53.232;-1.304;2023-04-25T00:28:51;100614.91;;;2.82;100.00
73817;BME280;62146;53.232;-1.304;2023-04-25T00:31:18;100620.31;;;2.81;100.00
73817;BME280;62146;53.232;-1.304;2023-04-25T00:33:45;100614.84;;;2.76;100.00
73817;BME280;62146;53.232;-1.304;2023-04-25T00:36:11;100618.81;;;2.72;100.00
73817;BME280;62146;53.232;-1.304;2023-04-25T00:38:38;100624.25;;;2.70;100.00
73817;BME280;62146;53.232;-1.304;2023-04-25T00:41:06;100623.41;;;2.70;100.00
73817;BME280;62146;53.232;-1.304;2023-04-25T00:43:33;100624.78;;;2.66;100.00
73817;BME280;62146;53.232;-1.304;2023-04-25T00:46:01;100628.59;;;2.64;100.00
73817;BME280;62146;53.232;-1.304;2023-04-25T00:48:27;100636.81;;;2.61;100.00
73817;BME280;62146;53.232;-1.304;2023-04-25T00:50:56;100631.13;;;2.57;100.00
73817;BME280;62146;53.232;-1.304;2023-04-25T00:53:25;100630.06;;;2.52;100.00
73817;BME280;62146;53.232;-1.304;2023-04-25T00:55:52;100627.25;;;2.53;100.00
73817;BME280;62146;53.232;-1.304;2023-04-25T00:58:20;100630.06;;;2.52;100.00
73817;BME280;62146;53.232;-1.304;2023-04-25T01:00:48;100634.03;;;2.48;100.00
73817;BME280;62146;53.232;-1.304;2023-04-25T01:03:17;100630.78;;;2.46;100.00
73817;BME280;62146;53.232;-1.304;2023-04-25T01:05:46;100628.50;;;2.43;100.00
73817;BME280;62146;53.232;-1.304;2023-04-25T01:08:13;100629.72;;;2.40;100.00
73817;BME280;62146;53.232;-1.304;2023-04-25T01:10:40;100636.47;;;2.35;100.00
73817;BME280;62146;53.232;-1.304;2023-04-25T01:13:07;100639.44;;;2.32;100.00
73817;BME280;62146;53.232;-1.304;2023-04-25T01:15:34;100633.59;;;2.30;100.00
73817;BME280;62146;53.232;-1.304;2023-04-25T01:18:05;100634.28;;;2.24;100.00
73817;BME280;62146;53.232;-1.304;2023-04-25T01:20:33;100638.91;;;2.22;100.00
73817;BME280;62146;53.232;-1.304;2023-04-25T01:23:01;100635.84;;;2.19;100.00
73817;BME280;62146;53.232;-1.304;2023-04-25T01:25:30;100633.13;;;2.13;100.00
73817;BME280;62146;53.232;-1.304;2023-04-25T01:27:57;100636.28;;;2.08;100.00
73817;BME280;62146;53.232;-1.304;2023-04-25T01:30:28;100632.25;;;2.06;100.00
73817;BME280;62146;53.232;-1.304;2023-04-25T01:32:56;100631.16;;;2.00;100.00
73817;BME280;62146;53.232;-1.304;2023-04-25T01:35:23;100631.50;;;1.97;100.00
73817;BME280;62146;53.232;-1.304;2023-04-25T01:37:53;100626.47;;;1.96;100.00
73817;BME280;62146;53.232;-1.304;2023-04-25T01:40:21;100623.59;;;1.91;100.00
73817;BME280;62146;53.232;-1.304;2023-04-25T01:42:48;100622.03;;;1.82;100.00
73817;BME280;62146;53.232;-1.304;2023-04-25T01:45:15;100626.00;;;1.78;100.00
73817;BME280;62146;53.232;-1.304;2023-04-25T01:47:42;100638.25;;;1.78;100.00
73817;BME280;62146;53.232;-1.304;2023-04-25T01:50:10;100627.69;;;1.71;100.00
73817;BME280;62146;53.232;-1.304;2023-04-25T01:52:37;100640.13;;;1.69;100.00
73817;BME280;62146;53.232;-1.304;2023-04-25T01:55:05;100638.88;;;1.65;100.00
73817;BME280;62146;53.232;-1.304;2023-04-25T01:57:32;100631.38;;;1.62;100.00
73817;BME280;62146;53.232;-1.304;2023-04-25T02:00:02;100634.34;;;1.59;100.00
73817;BME280;62146;53.232;-1.304;2023-04-25T02:02:30;100638.75;;;1.59;100.00
73817;BME280;62146;53.232;-1.304;2023-04-25T02:04:56;100641.72;;;1.56;100.00
73817;BME280;62146;53.232;-1.304;2023-04-25T02:07:23;100640.63;;;1.51;100.00
73817;BME280;62146;53.232;-1.304;2023-04-25T02:09:49;100644.22;;;1.50;100.00
73817;BME280;62146;53.232;-1.304;2023-04-25T02:12:16;100636.94;;;1.45;100.00
73817;BME280;62146;53.232;-1.304;2023-04-25T02:14:42;100637.75;;;1.46;100.00
73817;BME280;62146;53.232;-1.304;2023-04-25T02:17:09;100640.03;;;1.41;100.00
73817;BME280;62146;53.232;-1.304;2023-04-25T02:19:36;100643.38;;;1.35;100.00
73817;BME280;62146;53.232;-1.304;2023-04-25T02:22:03;100649.13;;;1.31;100.00
73817;BME280;62146;53.232;-1.304;2023-04-25T02:24:29;100652.56;;;1.31;100.00
73817;BME280;62146;53.232;-1.304;2023-04-25T02:26:56;100661.53;;;1.29;100.00
73817;BME280;62146;53.232;-1.304;2023-04-25T02:29:22;100663.88;;;1.24;100.00
73817;BME280;62146;53.232;-1.304;2023-04-25T02:31:49;100668.63;;;1.20;100.00
73817;BME280;62146;53.232;-1.304;2023-04-25T02:34:16;100670.59;;;1.18;100.00
73817;BME280;62146;53.232;-1.304;2023-04-25T02:36:42;100673.38;;;1.17;100.00
73817;BME280;62146;53.232;-1.304;2023-04-25T02:39:09;100666.06;;;1.12;100.00
73817;BME280;62146;53.232;-1.304;2023-04-25T02:41:36;100664.59;;;1.10;100.00
73817;BME280;62146;53.232;-1.304;2023-04-25T02:44:03;100660.56;;;1.07;100.00
73817;BME280;62146;53.232;-1.304;2023-04-25T02:46:29;100658.91;;;1.06;100.00
73817;BME280;62146;53.232;-1.304;2023-04-25T02:49:05;100658.63;;;1.02;100.00
73817;BME280;62146;53.232;-1.304;2023-04-25T02:51:32;100661.41;;;1.00;100.00
73817;BME280;62146;53.232;-1.304;2023-04-25T02:53:59;100678.69;;;1.01;100.00
73817;BME280;62146;53.232;-1.304;2023-04-25T02:56:25;100675.47;;;0.99;100.00
73817;BME280;62146;53.232;-1.304;2023-04-25T02:58:53;100676.78;;;0.95;100.00
73817;BME280;62146;53.232;-1.304;2023-04-25T03:01:20;100671.72;;;0.94;100.00
73817;BME280;62146;53.232;-1.304;2023-04-25T03:03:47;100669.81;;;0.88;100.00
73817;BME280;62146;53.232;-1.304;2023-04-25T03:06:14;100678.63;;;0.87;100.00
73817;BME280;62146;53.232;-1.304;2023-04-25T03:08:41;100682.03;;;0.87;100.00
73817;BME280;62146;53.232;-1.304;2023-04-25T03:11:09;100681.59;;;0.84;100.00
73817;BME280;62146;53.232;-1.304;2023-04-25T03:13:36;100686.16;;;0.82;100.00
73817;BME280;62146;53.232;-1.304;2023-04-25T03:16:02;100683.88;;;0.79;100.00
73817;BME280;62146;53.232;-1.304;2023-04-25T03:18:29;100678.19;;;0.76;100.00
73817;BME280;62146;53.232;-1.304;2023-04-25T03:20:55;100683.91;;;0.71;100.00
73817;BME280;62146;53.232;-1.304;2023-04-25T03:23:22;100685.72;;;0.71;100.00
73817;BME280;62146;53.232;-1.304;2023-04-25T03:25:49;100695.34;;;0.70;100.00
73817;BME280;62146;53.232;-1.304;2023-04-25T03:28:15;100691.13;;;0.69;100.00
73817;BME280;62146;53.232;-1.304;2023-04-25T03:30:42;100689.66;;;0.67;100.00
73817;BME280;62146;53.232;-1.304;2023-04-25T03:33:09;100684.75;;;0.64;100.00
73817;BME280;62146;53.232;-1.304;2023-04-25T03:35:35;100690.78;;;0.64;100.00
73817;BME280;62146;53.232;-1.304;2023-04-25T03:38:02;100685.94;;;0.61;100.00
73817;BME280;62146;53.232;-1.304;2023-04-25T03:40:28;100685.28;;;0.59;100.00
73817;BME280;62146;53.232;-1.304;2023-04-25T03:42:55;100686.28;;;0.58;100.00
73817;BME280;62146;53.232;-1.304;2023-04-25T03:45:22;100688.22;;;0.56;100.00
73817;BME280;62146;53.232;-1.304;2023-04-25T03:47:48;100690.34;;;0.53;100.00
73817;BME280;62146;53.232;-1.304;2023-04-25T03:50:16;100685.13;;;0.53;100.00
73817;BME280;62146;53.232;-1.304;2023-04-25T03:52:43;100684.22;;;0.46;100.00
73817;BME280;62146;53.232;-1.304;2023-04-25T03:55:10;100686.63;;;0.48;100.00
73817;BME280;62146;53.232;-1.304;2023-04-25T03:57:36;100682.75;;;0.44;100.00
73817;BME280;62146;53.232;-1.304;2023-04-25T04:00:03;100686.34;;;0.43;100.00
73817;BME280;62146;53.232;-1.304;2023-04-25T04:02:31;100691.88;;;0.40;100.00
73817;BME280;62146;53.232;-1.304;2023-04-25T04:04:59;100689.78;;;0.35;100.00
73817;BME280;62146;53.232;-1.304;2023-04-25T04:07:26;100686.69;;;0.32;100.00
73817;BME280;62146;53.232;-1.304;2023-04-25T04:09:53;100690.91;;;0.33;100.00
73817;BME280;62146;53.232;-1.304;2023-04-25T04:12:19;100690.63;;;0.28;100.00
73817;BME280;62146;53.232;-1.304;2023-04-25T04:14:46;100695.03;;;0.27;100.00
73817;BME280;62146;53.232;-1.304;2023-04-25T04:17:13;100699.25;;;0.28;100.00
73817;BME280;62146;53.232;-1.304;2023-04-25T04:19:39;100699.75;;;0.24;100.00
73817;BME280;62146;53.232;-1.304;2023-04-25T04:22:06;100711.16;;;0.23;100.00
73817;BME280;62146;53.232;-1.304;2023-04-25T04:24:32;100706.28;;;0.20;100.00
73817;BME280;62146;53.232;-1.304;2023-04-25T04:26:59;100710.84;;;0.18;100.00
73817;BME280;62146;53.232;-1.304;2023-04-25T04:29:26;100705.94;;;0.15;100.00
73817;BME280;62146;53.232;-1.304;2023-04-25T04:31:52;100716.56;;;0.14;100.00
73817;BME280;62146;53.232;-1.304;2023-04-25T04:34:19;100719.63;;;0.17;100.00
73817;BME280;62146;53.232;-1.304;2023-04-25T04:36:46;100717.53;;;0.13;100.00
73817;BME280;62146;53.232;-1.304;2023-04-25T04:39:13;100714.59;;;0.16;100.00
73817;BME280;62146;53.232;-1.304;2023-04-25T04:41:40;100718.66;;;0.10;100.00
73817;BME280;62146;53.232;-1.304;2023-04-25T04:44:07;100730.09;;;0.09;100.00
73817;BME280;62146;53.232;-1.304;2023-04-25T04:46:35;100729.59;;;0.06;100.00
73817;BME280;62146;53.232;-1.304;2023-04-25T04:49:09;100727.97;;;0.05;100.00
73817;BME280;62146;53.232;-1.304;2023-04-25T04:51:35;100733.19;;;0.05;100.00
73817;BME280;62146;53.232;-1.304;2023-04-25T04:54:03;100742.13;;;0.02;100.00
73817;BME280;62146;53.232;-1.304;2023-04-25T04:56:30;100743.75;;;0.03;100.00
73817;BME280;62146;53.232;-1.304;2023-04-25T04:58:58;100748.03;;;0.04;100.00
73817;BME280;62146;53.232;-1.304;2023-04-25T05:01:25;100751.56;;;0.03;100.00
73817;BME280;62146;53.232;-1.304;2023-04-25T05:03:52;100745.56;;;0.03;100.00
73817;BME280;62146;53.232;-1.304;2023-04-25T05:06:20;100748.03;;;0.04;100.00
73817;BME280;62146;53.232;-1.304;2023-04-25T05:08:47;100750.63;;;0.04;100.00
73817;BME280;62146;53.232;-1.304;2023-04-25T05:11:13;100747.03;;;0.05;100.00
73817;BME280;62146;53.232;-1.304;2023-04-25T05:13:40;100752.41;;;0.04;100.00
73817;BME280;62146;53.232;-1.304;2023-04-25T05:16:06;100751.25;;;0.06;100.00
73817;BME280;62146;53.232;-1.304;2023-04-25T05:18:33;100741.00;;;0.05;100.00
73817;BME280;62146;53.232;-1.304;2023-04-25T05:20:59;100741.81;;;0.05;100.00
73817;BME280;62146;53.232;-1.304;2023-04-25T05:23:26;100750.28;;;0.07;100.00
73817;BME280;62146;53.232;-1.304;2023-04-25T05:25:54;100750.28;;;0.07;100.00
73817;BME280;62146;53.232;-1.304;2023-04-25T05:28:20;100752.88;;;0.07;100.00
73817;BME280;62146;53.232;-1.304;2023-04-25T05:30:47;100743.13;;;0.09;100.00
73817;BME280;62146;53.232;-1.304;2023-04-25T05:33:14;100756.16;;;0.09;100.00
73817;BME280;62146;53.232;-1.304;2023-04-25T05:35:41;100751.75;;;0.10;100.00
73817;BME280;62146;53.232;-1.304;2023-04-25T05:38:08;100746.53;;;0.10;100.00
73817;BME280;62146;53.232;-1.304;2023-04-25T05:40:34;100745.91;;;0.08;100.00
73817;BME280;62146;53.232;-1.304;2023-04-25T05:43:01;100751.75;;;0.10;100.00
73817;BME280;62146;53.232;-1.304;2023-04-25T05:45:28;100750.63;;;0.12;100.00
73817;BME280;62146;53.232;-1.304;2023-04-25T05:47:54;100753.22;;;0.12;100.00
73817;BME280;62146;53.232;-1.304;2023-04-25T05:50:21;100750.63;;;0.12;100.00
73817;BME280;62146;53.232;-1.304;2023-04-25T05:52:48;100747.19;;;0.12;100.00
73817;BME280;62146;53.232;-1.304;2023-04-25T05:55:14;100747.19;;;0.12;100.00
73817;BME280;62146;53.232;-1.304;2023-04-25T05:57:41;100758.25;;;0.14;100.00
73817;BME280;62146;53.232;-1.304;2023-04-25T06:00:14;100764.13;;;0.16;100.00
73817;BME280;62146;53.232;-1.304;2023-04-25T06:02:42;100764.28;;;0.14;100.00
73817;BME280;62146;53.232;-1.304;2023-04-25T06:05:08;100766.38;;;0.19;100.00
73817;BME280;62146;53.232;-1.304;2023-04-25T06:07:35;100766.88;;;0.22;100.00
73817;BME280;62146;53.232;-1.304;2023-04-25T06:10:02;100768.53;;;0.23;100.00
73817;BME280;62146;53.232;-1.304;2023-04-25T06:12:33;100768.53;;;0.23;100.00
73817;BME280;62146;53.232;-1.304;2023-04-25T06:15:00;100770.13;;;0.24;100.00
73817;BME280;62146;53.232;-1.304;2023-04-25T06:17:27;100777.47;;;0.28;100.00
73817;BME280;62146;53.232;-1.304;2023-04-25T06:19:54;100788.19;;;0.33;100.00
73817;BME280;62146;53.232;-1.304;2023-04-25T06:22:20;100793.28;;;0.35;100.00
73817;BME280;62146;53.232;-1.304;2023-04-25T06:24:47;100798.97;;;0.38;100.00
73817;BME280;62146;53.232;-1.304;2023-04-25T06:27:14;100797.00;;;0.40;100.00
73817;BME280;62146;53.232;-1.304;2023-04-25T06:29:42;100798.63;;;0.41;100.00
73817;BME280;62146;53.232;-1.304;2023-04-25T06:32:10;100795.69;;;0.44;100.00
73817;BME280;62146;53.232;-1.304;2023-04-25T06:34:36;100801.38;;;0.48;100.00
73817;BME280;62146;53.232;-1.304;2023-04-25T06:37:03;100797.28;;;0.53;100.00
73817;BME280;62146;53.232;-1.304;2023-04-25T06:39:29;100800.72;;;0.53;100.00
73817;BME280;62146;53.232;-1.304;2023-04-25T06:41:56;100799.41;;;0.57;100.00
73817;BME280;62146;53.232;-1.304;2023-04-25T06:44:22;100807.88;;;0.59;100.00
73817;BME280;62146;53.232;-1.304;2023-04-25T06:46:50;100809.03;;;0.65;100.00
73817;BME280;62146;53.232;-1.304;2023-04-25T06:49:17;100814.06;;;0.66;100.00
73817;BME280;62146;53.232;-1.304;2023-04-25T06:51:43;100808.50;;;0.69;100.00
73817;BME280;62146;53.232;-1.304;2023-04-25T06:54:10;100813.03;;;0.75;100.00
73817;BME280;62146;53.232;-1.304;2023-04-25T06:56:36;100817.94;;;0.78;100.00
73817;BME280;62146;53.232;-1.304;2023-04-25T06:59:03;100817.44;;;0.82;100.00
73817;BME280;62146;53.232;-1.304;2023-04-25T07:01:29;100814.50;;;0.85;100.00
73817;BME280;62146;53.232;-1.304;2023-04-25T07:03:57;100814.78;;;0.90;100.00
73817;BME280;62146;53.232;-1.304;2023-04-25T07:06:24;100812.50;;;0.95;100.00
73817;BME280;62146;53.232;-1.304;2023-04-25T07:08:52;100803.38;;;0.99;100.00
73817;BME280;62146;53.232;-1.304;2023-04-25T07:11:19;100813.78;;;1.07;100.00
73817;BME280;62146;53.232;-1.304;2023-04-25T07:13:46;100814.25;;;1.10;100.00
73817;BME280;62146;53.232;-1.304;2023-04-25T07:16:12;100813.72;;;1.15;100.00
73817;BME280;62146;53.232;-1.304;2023-04-25T07:18:39;100812.22;;;1.20;100.00
73817;BME280;62146;53.232;-1.304;2023-04-25T07:21:06;100816.59;;;1.28;100.00
73817;BME280;62146;53.232;-1.304;2023-04-25T07:23:32;100823.59;;;1.35;100.00
73817;BME280;62146;53.232;-1.304;2023-04-25T07:25:59;100818.31;;;1.43;100.00
73817;BME280;62146;53.232;-1.304;2023-04-25T07:28:26;100807.00;;;1.50;100.00
73817;BME280;62146;53.232;-1.304;2023-04-25T07:30:52;100822.13;;;1.62;100.00
73817;BME280;62146;53.232;-1.304;2023-04-25T07:33:19;100818.63;;;1.70;100.00
73817;BME280;62146;53.232;-1.304;2023-04-25T07:35:47;100814.00;;;1.80;100.00
73817;BME280;62146;53.232;-1.304;2023-04-25T07:38:13;100823.06;;;1.91;100.00
73817;BME280;62146;53.232;-1.304;2023-04-25T07:40:40;100823.28;;;2.04;100.00
73817;BME280;62146;53.232;-1.304;2023-04-25T07:43:06;100831.19;;;2.18;100.00
73817;BME280;62146;53.232;-1.304;2023-04-25T07:45:33;100834.66;;;2.33;100.00
73817;BME280;62146;53.232;-1.304;2023-04-25T07:48:03;100828.63;;;2.47;100.00
73817;BME280;62146;53.232;-1.304;2023-04-25T07:50:30;100825.44;;;2.59;100.00
73817;BME280;62146;53.232;-1.304;2023-04-25T07:52:57;100831.66;;;2.72;100.00
73817;BME280;62146;53.232;-1.304;2023-04-25T07:55:23;100840.34;;;2.87;100.00
73817;BME280;62146;53.232;-1.304;2023-04-25T07:57:50;100839.53;;;3.01;100.00
73817;BME280;62146;53.232;-1.304;2023-04-25T08:00:17;100833.31;;;3.16;100.00
73817;BME280;62146;53.232;-1.304;2023-04-25T08:02:44;100838.34;;;3.32;100.00
73817;BME280;62146;53.232;-1.304;2023-04-25T08:05:11;100842.56;;;3.47;100.00
73817;BME280;62146;53.232;-1.304;2023-04-25T08:07:44;100843.16;;;3.63;100.00
73817;BME280;62146;53.232;-1.304;2023-04-25T08:10:11;100847.16;;;3.80;100.00
73817;BME280;62146;53.232;-1.304;2023-04-25T08:12:38;100843.69;;;3.94;100.00
73817;BME280;62146;53.232;-1.304;2023-04-25T08:15:05;100842.63;;;4.09;100.00
73817;BME280;62146;53.232;-1.304;2023-04-25T08:17:32;100843.00;;;4.27;100.00
73817;BME280;62146;53.232;-1.304;2023-04-25T08:19:59;100846.97;;;4.43;100.00
73817;BME280;62146;53.232;-1.304;2023-04-25T08:22:25;100845.69;;;4.60;100.00
73817;BME280;62146;53.232;-1.304;2023-04-25T08:24:52;100854.34;;;4.81;100.00
73817;BME280;62146;53.232;-1.304;2023-04-25T08:27:18;100864.78;;;5.02;100.00
73817;BME280;62146;53.232;-1.304;2023-04-25T08:29:45;100868.75;;;5.25;100.00
73817;BME280;62146;53.232;-1.304;2023-04-25T08:32:11;100859.78;;;5.46;100.00
73817;BME280;62146;53.232;-1.304;2023-04-25T08:34:38;100869.00;;;5.69;100.00
73817;BME280;62146;53.232;-1.304;2023-04-25T08:37:08;100869.28;;;5.93;100.00
73817;BME280;62146;53.232;-1.304;2023-04-25T08:39:36;100871.38;;;6.17;100.00
73817;BME280;62146;53.232;-1.304;2023-04-25T08:42:06;100872.63;;;6.40;100.00
73817;BME280;62146;53.232;-1.304;2023-04-25T08:44:36;100869.78;;;6.61;100.00
73817;BME280;62146;53.232;-1.304;2023-04-25T08:47:04;100867.78;;;6.82;100.00
73817;BME280;62146;53.232;-1.304;2023-04-25T08:49:34;100871.38;;;7.06;100.00
73817;BME280;62146;53.232;-1.304;2023-04-25T08:52:04;100869.09;;;7.29;100.00
73817;BME280;62146;53.232;-1.304;2023-04-25T08:54:32;100871.28;;;7.51;100.00
73817;BME280;62146;53.232;-1.304;2023-04-25T08:57:02;100871.59;;;7.74;100.00
73817;BME280;62146;53.232;-1.304;2023-04-25T08:59:32;100870.25;;;7.95;100.00
73817;BME280;62146;53.232;-1.304;2023-04-25T09:02:00;100867.09;;;8.17;100.00
73817;BME280;62146;53.232;-1.304;2023-04-25T09:04:31;100872.06;;;8.38;100.00
73817;BME280;62146;53.232;-1.304;2023-04-25T09:06:58;100869.84;;;8.59;100.00
73817;BME280;62146;53.232;-1.304;2023-04-25T09:09:25;100866.25;;;8.78;100.00
73817;BME280;62146;53.232;-1.304;2023-04-25T09:11:53;100862.19;;;8.99;100.00
73817;BME280;62146;53.232;-1.304;2023-04-25T09:14:22;100863.59;;;9.19;100.00
73817;BME280;62146;53.232;-1.304;2023-04-25T09:19:26;100856.03;;;9.58;100.00
73817;BME280;62146;53.232;-1.304;2023-04-25T09:22:06;100852.94;;;9.79;100.00
73817;BME280;62146;53.232;-1.304;2023-04-25T09:24:40;100861.00;;;10.01;100.00
73817;BME280;62146;53.232;-1.304;2023-04-25T09:27:16;100849.31;;;10.20;100.00
73817;BME280;62146;53.232;-1.304;2023-04-25T09:29:44;100851.66;;;10.39;100.00
73817;BME280;62146;53.232;-1.304;2023-04-25T09:32:22;100854.59;;;10.60;100.00
73817;BME280;62146;53.232;-1.304;2023-04-25T09:34:51;100850.59;;;10.80;100.00
73817;BME280;62146;53.232;-1.304;2023-04-25T09:37:19;100854.28;;;11.02;100.00
73817;BME280;62146;53.232;-1.304;2023-04-25T09:39:57;100852.88;;;11.22;100.00
73817;BME280;62146;53.232;-1.304;2023-04-25T09:42:27;100853.94;;;11.44;100.00
73817;BME280;62146;53.232;-1.304;2023-04-25T09:44:56;100846.03;;;11.60;100.00
73817;BME280;62146;53.232;-1.304;2023-04-25T09:47:24;100852.00;;;11.78;100.00
73817;BME280;62146;53.232;-1.304;2023-04-25T09:49:52;100853.19;;;11.98;100.00
73817;BME280;62146;53.232;-1.304;2023-04-25T09:52:20;100850.81;;;12.13;100.00
73817;BME280;62146;53.232;-1.304;2023-04-25T09:54:51;100848.53;;;12.32;100.00
73817;BME280;62146;53.232;-1.304;2023-04-25T09:57:18;100856.63;;;12.54;100.00
73817;BME280;62146;53.232;-1.304;2023-04-25T09:59:50;100857.91;;;12.67;100.00
73817;BME280;62146;53.232;-1.304;2023-04-25T10:02:19;100855.28;;;12.84;100.00
73817;BME280;62146;53.232;-1.304;2023-04-25T10:04:54;100849.22;;;13.04;100.00
73817;BME280;62146;53.232;-1.304;2023-04-25T10:07:29;100850.56;;;13.23;100.00
73817;BME280;62146;53.232;-1.304;2023-04-25T10:10:01;100850.03;;;13.42;100.00
73817;BME280;62146;53.232;-1.304;2023-04-25T10:12:32;100855.56;;;13.57;100.00
73817;BME280;62146;53.232;-1.304;2023-04-25T10:14:59;100859.72;;;13.69;100.00
73817;BME280;62146;53.232;-1.304;2023-04-25T10:17:27;100856.13;;;13.80;100.00
73817;BME280;62146;53.232;-1.304;2023-04-25T10:19:54;100858.38;;;13.92;100.00
73817;BME280;62146;53.232;-1.304;2023-04-25T10:22:44;100863.38;;;14.05;100.00
73817;BME280;62146;53.232;-1.304;2023-04-25T10:25:12;100859.22;;;14.14;100.00
73817;BME280;62146;53.232;-1.304;2023-04-25T10:27:39;100857.19;;;14.26;100.00
73817;BME280;62146;53.232;-1.304;2023-04-25T10:30:13;100851.13;;;14.35;100.00
73817;BME280;62146;53.232;-1.304;2023-04-25T10:32:43;100845.13;;;14.49;100.00
73817;BME280;62146;53.232;-1.304;2023-04-25T10:35:18;100854.09;;;14.65;100.00
73817;BME280;62146;53.232;-1.304;2023-04-25T10:40:22;100846.28;;;14.89;100.00
73817;BME280;62146;53.232;-1.304;2023-04-25T10:42:52;100847.94;;;15.00;100.00
73817;BME280;62146;53.232;-1.304;2023-04-25T10:45:19;100848.34;;;15.13;100.00
73817;BME280;62146;53.232;-1.304;2023-04-25T10:47:46;100853.00;;;15.27;100.00
73817;BME280;62146;53.232;-1.304;2023-04-25T10:50:17;100859.47;;;15.41;100.00
73817;BME280;62146;53.232;-1.304;2023-04-25T10:52:44;100850.44;;;15.52;100.00
73817;BME280;62146;53.232;-1.304;2023-04-25T10:55:11;100851.31;;;15.62;100.00
73817;BME280;62146;53.232;-1.304;2023-04-25T10:57:41;100848.41;;;15.74;100.00
73817;BME280;62146;53.232;-1.304;2023-04-25T11:02:41;100856.25;;;16.00;100.00
73817;BME280;62146;53.232;-1.304;2023-04-25T11:05:09;100852.84;;;16.14;100.00
73817;BME280;62146;53.232;-1.304;2023-04-25T11:10:32;100850.47;;;16.27;100.00
73817;BME280;62146;53.232;-1.304;2023-04-25T11:13:01;100845.69;;;16.34;100.00
73817;BME280;62146;53.232;-1.304;2023-04-25T11:15:28;100847.03;;;16.41;100.00
73817;BME280;62146;53.232;-1.304;2023-04-25T11:17:55;100843.00;;;16.49;100.00
73817;BME280;62146;53.232;-1.304;2023-04-25T11:20:24;100836.31;;;16.61;100.00
73817;BME280;62146;53.232;-1.304;2023-04-25T11:22:52;100842.22;;;16.73;100.00
73817;BME280;62146;53.232;-1.304;2023-04-25T11:25:19;100834.72;;;16.85;100.00
73817;BME280;62146;53.232;-1.304;2023-04-25T11:30:17;100828.53;;;17.04;100.00
73817;BME280;62146;53.232;-1.304;2023-04-25T11:32:44;100833.66;;;17.10;100.00
73817;BME280;62146;53.232;-1.304;2023-04-25T11:35:12;100819.97;;;16.87;100.00
73817;BME280;62146;53.232;-1.304;2023-04-25T11:37:40;100827.13;;;16.08;100.00
73817;BME280;62146;53.232;-1.304;2023-04-25T11:40:08;100825.56;;;15.47;100.00
73817;BME280;62146;53.232;-1.304;2023-04-25T11:42:43;100814.50;;;15.28;100.00
73817;BME280;62146;53.232;-1.304;2023-04-25T11:45:10;100816.38;;;15.28;100.00
73817;BME280;62146;53.232;-1.304;2023-04-25T11:47:37;100805.69;;;15.28;100.00
73817;BME280;62146;53.232;-1.304;2023-04-25T11:50:06;100802.75;;;15.29;100.00
73817;BME280;62146;53.232;-1.304;2023-04-25T11:52:42;100792.78;;;15.15;100.00
73817;BME280;62146;53.232;-1.304;2023-04-25T11:55:19;100782.75;;;14.96;100.00
73817;BME280;62146;53.232;-1.304;2023-04-25T11:57:48;100778.50;;;15.00;100.00
73817;BME280;62146;53.232;-1.304;2023-04-25T12:00:20;100788.75;;;15.08;100.00
73817;BME280;62146;53.232;-1.304;2023-04-25T12:02:51;100782.56;;;15.07;100.00
73817;BME280;62146;53.232;-1.304;2023-04-25T12:05:19;100777.94;;;15.39;100.00
73817;BME280;62146;53.232;-1.304;2023-04-25T12:08:12;100788.41;;;15.50;100.00
73817;BME280;62146;53.232;-1.304;2023-04-25T12:10:40;100783.09;;;15.55;100.00
73817;BME280;62146;53.232;-1.304;2023-04-25T12:13:24;100769.16;;;15.53;100.00
73817;BME280;62146;53.232;-1.304;2023-04-25T12:15:53;100778.31;;;15.67;100.00
73817;BME280;62146;53.232;-1.304;2023-04-25T12:18:23;100782.34;;;15.69;100.00
73817;BME280;62146;53.232;-1.304;2023-04-25T12:20:50;100778.06;;;15.73;100.00
73817;BME280;62146;53.232;-1.304;2023-04-25T12:23:25;100778.88;;;15.74;100.00
73817;BME280;62146;53.232;-1.304;2023-04-25T12:25:52;100774.31;;;15.69;100.00
73817;BME280;62146;53.232;-1.304;2023-04-25T12:28:23;100778.63;;;15.85;100.00
73817;BME280;62146;53.232;-1.304;2023-04-25T12:33:22;100773.91;;;16.11;100.00
73817;BME280;62146;53.232;-1.304;2023-04-25T12:35:48;100775.53;;;16.22;100.00
73817;BME280;62146;53.232;-1.304;2023-04-25T12:38:36;100782.69;;;16.07;100.00
73817;BME280;62146;53.232;-1.304;2023-04-25T12:41:03;100777.56;;;15.91;100.00
73817;BME280;62146;53.232;-1.304;2023-04-25T12:43:29;100770.28;;;15.62;100.00
73817;BME280;62146;53.232;-1.304;2023-04-25T12:45:56;100767.38;;;15.73;100.00
73817;BME280;62146;53.232;-1.304;2023-04-25T12:48:23;100765.41;;;15.49;100.00
73817;BME280;62146;53.232;-1.304;2023-04-25T12:50:50;100768.69;;;15.71;100.00
73817;BME280;62146;53.232;-1.304;2023-04-25T12:53:19;100764.47;;;15.94;100.00
73817;BME280;62146;53.232;-1.304;2023-04-25T12:55:47;100763.75;;;16.23;100.00
73817;BME280;62146;53.232;-1.304;2023-04-25T12:58:14;100759.97;;;16.44;100.00